الصفحة الرئيسية
METAR-TAF:

METAR-TAF

مطار :

مطار كوتوكا الدولي

أكرا, غانا

دائرة عرض: 05-36N, خط طول: 000-10W, ارتفاع: 68 متر

مراقبة الطقس الحالي

تاريخ ووقت الإصدار 26 دقيقة قبل الساعة 07:00UTC
ريح 3 عقدة من الغرب
درجة الحرارة 23°درجة مئوية
الرطوبة 100%
ضغط 1014 hPa
الرؤية: 5000 متر
غشاء

METAR: DGAA 240700Z 27003KT 5000 BR NSC 23/23 Q1014 NOSIG

زمن: 07:26 (07:26 UTC)

توقعات

تاريخ ووقت الإصدار 2ساعات و 26 دقيقة قبل الساعة 05:00UTC
التوقعات صالحة من24 الساعة 06 UTC إلى 25 الساعة 12 UTC
ريح 10 عقدة من الغرب
الرؤية 10 كم أو أكثر
غيوم قليلة على ارتفاع 2000 قدم
أصبح
من 24 الساعة 11 UTC إلى 24 الساعة 13 UTC
ريح 15 عقدة من الجنوب/الجنوب الغربي
غيوم مفككة على ارتفاع 1500 قدم
نظرية الاحتمالات 30% :
مؤقت
من 24 الساعة 15 UTC إلى 24 الساعة 18 UTC
الرؤية: 5000 متر
غيوم مفككة على ارتفاع 900 قدم
مطر
أصبح
من 24 الساعة 23 UTC إلى 25 الساعة 01 UTC
ريح 6 عقدة من الغرب
الرؤية 10 كم أو أكثر
الغيوم لا تقل 1500 م ولا وجود لمزنة ركامية السحاب الأسود

TAF: DGAA 240500Z 2406/2512 27010KT 9999 FEW020 BECMG 2411/2413 20015KT BKN015 PROB30 TEMPO 2415/2418 5000 RA BKN009 BECMG 2423/2501 27006KT CAVOK

أرصاد الطقس والتوقعات من أكثر من 4000 مطار (تقارير الطقس للمطار METAR والتنبؤ بالطقس بالمطارTAF).

المحطات المتاحة هي النقط الصفراء والحمراء على الخريطة.

حرك المؤشر فوق النقطة لمعرفة اسم المحطة.

ثم انقر لمعرفة أرصاد وتوقعات الطقس.

لتغيير الخارطة: اضغط على الأزرار الخضراء مع رمز الصليب الأسود للتكبير. على الزر الأخضر مع شرطة للتصغير، أو على الأسهم الخضراء للخرائط المجاورة.


METAR-TAF: